This is the latest recevied weather packets stored in our database for station/object VK3AFQ-13. If no packets are shown the sender has not sent any weather packets the latest 10 day(s).
| Time | Temp. | Humidity | Pressure | Rain* | Wind** | Luminosity | Snow |
|---|---|---|---|---|---|---|---|
| 1777875364 | 16.67° C | 76% | 1012.9 hPa | - | - | - | - |
| 1777874462 | 16.67° C | 77% | 1012.9 hPa | - | - | - | - |
| 1777873564 | 16.67° C | 78% | 1013 hPa | - | - | - | - |
| 1777872664 | 15.56° C | 83% | 1012.8 hPa | - | - | - | - |
| 1777871763 | 16.11° C | 77% | 1013 hPa | - | - | - | - |
| 1777870862 | 17.78° C | 70% | 1012.8 hPa | - | - | - | - |
| 1777869963 | 18.33° C | 65% | 1012.5 hPa | - | - | - | - |
| 1777869063 | 17.78° C | 65% | 1012.5 hPa | - | - | - | - |
| 1777868163 | 18.89° C | 63% | 1012.5 hPa | - | - | - | - |
| 1777867262 | 18.33° C | 65% | 1012.4 hPa | - | - | - | - |
| 1777866364 | 18.33° C | 65% | 1012.5 hPa | - | - | - | - |
| 1777865464 | 18.33° C | 65% | 1012.7 hPa | - | - | - | - |
| 1777864564 | 18.33° C | 65% | 1012.9 hPa | - | - | - | - |
| 1777863662 | 17.78° C | 68% | 1013 hPa | - | - | - | - |
| 1777862764 | 17.78° C | 66% | 1013.4 hPa | - | - | - | - |
| 1777861863 | 17.78° C | 66% | 1013.5 hPa | - | - | - | - |
| 1777860964 | 17.22° C | 69% | 1013.5 hPa | - | - | - | - |
| 1777860062 | 17.22° C | 68% | 1013.7 hPa | - | - | - | - |
| 1777859164 | 17.22° C | 68% | 1013.7 hPa | - | - | - | - |
| 1777858263 | 16.67° C | 70% | 1013.9 hPa | - | - | - | - |
| 1777857363 | 16.67° C | 71% | 1014.1 hPa | - | - | - | - |
| 1777856462 | 16.67° C | 71% | 1014.1 hPa | - | - | - | - |
| 1777855564 | 16.67° C | 69% | 1014.2 hPa | - | - | - | - |
| 1777854664 | 16.67° C | 72% | 1014.2 hPa | - | - | - | - |
| 1777853763 | 16.11° C | 73% | 1014.2 hPa | - | - | - | - |
* Rain since midnight (hover to see other rain measurements)
** Current wind speed in m/s (hover to see current wind gust speed)